sensor_id;sensor_type;location;lat;lon;timestamp;P1;durP1;ratioP1;P2;durP2;ratioP2
45893;SDS011;31603;51.148;16.932;2022-08-19T00:02:21;12.95;;;9.23;;
45893;SDS011;31603;51.148;16.932;2022-08-19T00:04:49;13.88;;;9.05;;
45893;SDS011;31603;51.148;16.932;2022-08-19T00:07:19;13.43;;;9.23;;
45893;SDS011;31603;51.148;16.932;2022-08-19T00:09:46;15.18;;;9.50;;
45893;SDS011;31603;51.148;16.932;2022-08-19T00:12:12;10.93;;;9.00;;
45893;SDS011;31603;51.148;16.932;2022-08-19T00:14:40;13.10;;;9.10;;
45893;SDS011;31603;51.148;16.932;2022-08-19T00:17:07;13.75;;;10.07;;
45893;SDS011;31603;51.148;16.932;2022-08-19T00:19:40;15.73;;;8.65;;
45893;SDS011;31603;51.148;16.932;2022-08-19T00:22:08;12.70;;;9.48;;
45893;SDS011;31603;51.148;16.932;2022-08-19T00:24:34;9.52;;;8.35;;
45893;SDS011;31603;51.148;16.932;2022-08-19T00:27:03;12.95;;;9.40;;
45893;SDS011;31603;51.148;16.932;2022-08-19T00:29:30;12.10;;;9.43;;
45893;SDS011;31603;51.148;16.932;2022-08-19T00:31:57;13.15;;;9.40;;
45893;SDS011;31603;51.148;16.932;2022-08-19T00:34:25;16.58;;;9.25;;
45893;SDS011;31603;51.148;16.932;2022-08-19T00:36:53;16.65;;;9.55;;
45893;SDS011;31603;51.148;16.932;2022-08-19T00:39:21;16.02;;;9.98;;
45893;SDS011;31603;51.148;16.932;2022-08-19T00:41:48;14.35;;;9.60;;
45893;SDS011;31603;51.148;16.932;2022-08-19T00:44:17;16.52;;;9.70;;
45893;SDS011;31603;51.148;16.932;2022-08-19T00:46:47;16.23;;;9.57;;
45893;SDS011;31603;51.148;16.932;2022-08-19T00:49:19;17.70;;;9.52;;
45893;SDS011;31603;51.148;16.932;2022-08-19T00:51:55;14.50;;;9.88;;
45893;SDS011;31603;51.148;16.932;2022-08-19T00:54:29;12.97;;;8.60;;
45893;SDS011;31603;51.148;16.932;2022-08-19T00:56:58;18.25;;;9.30;;
45893;SDS011;31603;51.148;16.932;2022-08-19T00:59:27;13.38;;;8.82;;
45893;SDS011;31603;51.148;16.932;2022-08-19T01:01:54;16.65;;;9.35;;
45893;SDS011;31603;51.148;16.932;2022-08-19T01:04:20;13.98;;;9.25;;
45893;SDS011;31603;51.148;16.932;2022-08-19T01:06:47;19.55;;;9.80;;
45893;SDS011;31603;51.148;16.932;2022-08-19T01:09:15;13.73;;;9.15;;
45893;SDS011;31603;51.148;16.932;2022-08-19T01:14:48;11.73;;;8.35;;
45893;SDS011;31603;51.148;16.932;2022-08-19T01:17:26;11.70;;;8.20;;
45893;SDS011;31603;51.148;16.932;2022-08-19T01:19:53;14.93;;;9.02;;
45893;SDS011;31603;51.148;16.932;2022-08-19T01:22:27;14.38;;;9.93;;
45893;SDS011;31603;51.148;16.932;2022-08-19T01:24:56;13.55;;;8.70;;
45893;SDS011;31603;51.148;16.932;2022-08-19T01:27:22;10.90;;;8.43;;
45893;SDS011;31603;51.148;16.932;2022-08-19T01:29:50;13.70;;;9.13;;
45893;SDS011;31603;51.148;16.932;2022-08-19T01:32:17;10.45;;;8.15;;
45893;SDS011;31603;51.148;16.932;2022-08-19T01:34:44;12.23;;;8.80;;
45893;SDS011;31603;51.148;16.932;2022-08-19T01:37:12;13.82;;;8.30;;
45893;SDS011;31603;51.148;16.932;2022-08-19T01:39:41;14.95;;;8.57;;
45893;SDS011;31603;51.148;16.932;2022-08-19T01:42:08;15.10;;;8.80;;
45893;SDS011;31603;51.148;16.932;2022-08-19T01:44:36;14.45;;;8.70;;
45893;SDS011;31603;51.148;16.932;2022-08-19T01:47:04;17.58;;;9.18;;
45893;SDS011;31603;51.148;16.932;2022-08-19T01:49:36;20.20;;;9.60;;
45893;SDS011;31603;51.148;16.932;2022-08-19T01:52:06;19.85;;;8.98;;
45893;SDS011;31603;51.148;16.932;2022-08-19T01:54:33;18.85;;;9.00;;
45893;SDS011;31603;51.148;16.932;2022-08-19T01:57:10;22.60;;;9.63;;
45893;SDS011;31603;51.148;16.932;2022-08-19T01:59:44;15.10;;;8.52;;
45893;SDS011;31603;51.148;16.932;2022-08-19T02:02:11;22.63;;;10.05;;
45893;SDS011;31603;51.148;16.932;2022-08-19T02:04:38;17.08;;;9.02;;
45893;SDS011;31603;51.148;16.932;2022-08-19T02:07:07;20.90;;;9.02;;
45893;SDS011;31603;51.148;16.932;2022-08-19T02:09:34;17.02;;;9.15;;
45893;SDS011;31603;51.148;16.932;2022-08-19T02:12:02;24.60;;;9.60;;
45893;SDS011;31603;51.148;16.932;2022-08-19T02:14:29;19.42;;;9.60;;
45893;SDS011;31603;51.148;16.932;2022-08-19T02:17:00;21.58;;;9.63;;
45893;SDS011;31603;51.148;16.932;2022-08-19T02:19:26;23.27;;;9.30;;
45893;SDS011;31603;51.148;16.932;2022-08-19T02:21:53;20.13;;;9.20;;
45893;SDS011;31603;51.148;16.932;2022-08-19T02:24:19;25.33;;;9.55;;
45893;SDS011;31603;51.148;16.932;2022-08-19T02:26:46;17.95;;;9.35;;
45893;SDS011;31603;51.148;16.932;2022-08-19T02:29:14;11.32;;;9.10;;
45893;SDS011;31603;51.148;16.932;2022-08-19T02:31:42;14.27;;;9.07;;
45893;SDS011;31603;51.148;16.932;2022-08-19T02:34:10;16.83;;;9.50;;
45893;SDS011;31603;51.148;16.932;2022-08-19T02:39:08;15.07;;;8.85;;
45893;SDS011;31603;51.148;16.932;2022-08-19T02:41:34;20.30;;;10.10;;
45893;SDS011;31603;51.148;16.932;2022-08-19T02:44:01;16.15;;;9.05;;
45893;SDS011;31603;51.148;16.932;2022-08-19T02:46:31;18.58;;;8.90;;
45893;SDS011;31603;51.148;16.932;2022-08-19T02:48:59;16.67;;;9.18;;
45893;SDS011;31603;51.148;16.932;2022-08-19T02:51:29;10.90;;;9.05;;
45893;SDS011;31603;51.148;16.932;2022-08-19T02:53:57;14.07;;;8.90;;
45893;SDS011;31603;51.148;16.932;2022-08-19T02:56:24;18.85;;;9.93;;
45893;SDS011;31603;51.148;16.932;2022-08-19T02:58:52;12.02;;;9.02;;
45893;SDS011;31603;51.148;16.932;2022-08-19T03:01:22;14.77;;;10.30;;
45893;SDS011;31603;51.148;16.932;2022-08-19T03:03:51;15.32;;;9.57;;
45893;SDS011;31603;51.148;16.932;2022-08-19T03:06:21;13.05;;;9.85;;
45893;SDS011;31603;51.148;16.932;2022-08-19T03:08:48;14.23;;;10.52;;
45893;SDS011;31603;51.148;16.932;2022-08-19T03:11:16;13.80;;;9.35;;
45893;SDS011;31603;51.148;16.932;2022-08-19T03:13:47;16.67;;;10.15;;
45893;SDS011;31603;51.148;16.932;2022-08-19T03:16:16;14.68;;;9.95;;
45893;SDS011;31603;51.148;16.932;2022-08-19T03:18:42;17.02;;;10.50;;
45893;SDS011;31603;51.148;16.932;2022-08-19T03:21:19;14.30;;;10.13;;
45893;SDS011;31603;51.148;16.932;2022-08-19T03:23:53;13.40;;;9.35;;
45893;SDS011;31603;51.148;16.932;2022-08-19T03:26:20;13.63;;;10.05;;
45893;SDS011;31603;51.148;16.932;2022-08-19T03:28:47;16.50;;;10.95;;
45893;SDS011;31603;51.148;16.932;2022-08-19T03:31:17;14.80;;;10.25;;
45893;SDS011;31603;51.148;16.932;2022-08-19T03:36:15;16.23;;;11.90;;
45893;SDS011;31603;51.148;16.932;2022-08-19T03:41:13;16.13;;;11.40;;
45893;SDS011;31603;51.148;16.932;2022-08-19T03:43:41;19.52;;;10.85;;
45893;SDS011;31603;51.148;16.932;2022-08-19T03:46:09;15.90;;;10.65;;
45893;SDS011;31603;51.148;16.932;2022-08-19T03:48:38;14.48;;;10.82;;
45893;SDS011;31603;51.148;16.932;2022-08-19T03:51:05;13.95;;;10.98;;
45893;SDS011;31603;51.148;16.932;2022-08-19T03:53:34;15.00;;;10.85;;
45893;SDS011;31603;51.148;16.932;2022-08-19T03:56:01;17.40;;;11.88;;
45893;SDS011;31603;51.148;16.932;2022-08-19T03:58:29;15.40;;;11.02;;
45893;SDS011;31603;51.148;16.932;2022-08-19T04:00:57;15.02;;;10.32;;
45893;SDS011;31603;51.148;16.932;2022-08-19T04:03:24;15.30;;;11.48;;
45893;SDS011;31603;51.148;16.932;2022-08-19T04:05:53;19.13;;;12.73;;
45893;SDS011;31603;51.148;16.932;2022-08-19T04:08:21;16.38;;;11.88;;
45893;SDS011;31603;51.148;16.932;2022-08-19T04:10:49;16.27;;;11.82;;
45893;SDS011;31603;51.148;16.932;2022-08-19T04:13:16;18.38;;;11.65;;
45893;SDS011;31603;51.148;16.932;2022-08-19T04:15:45;13.73;;;11.18;;
45893;SDS011;31603;51.148;16.932;2022-08-19T04:18:12;15.88;;;11.93;;
45893;SDS011;31603;51.148;16.932;2022-08-19T04:20:45;17.40;;;12.70;;
45893;SDS011;31603;51.148;16.932;2022-08-19T04:23:14;18.92;;;13.05;;
45893;SDS011;31603;51.148;16.932;2022-08-19T04:25:46;18.55;;;12.13;;
45893;SDS011;31603;51.148;16.932;2022-08-19T04:28:14;17.63;;;12.35;;
45893;SDS011;31603;51.148;16.932;2022-08-19T04:30:41;15.93;;;12.82;;
45893;SDS011;31603;51.148;16.932;2022-08-19T04:33:12;15.70;;;11.52;;
45893;SDS011;31603;51.148;16.932;2022-08-19T04:35:48;15.48;;;12.77;;
45893;SDS011;31603;51.148;16.932;2022-08-19T04:38:17;15.63;;;12.43;;
45893;SDS011;31603;51.148;16.932;2022-08-19T04:40:46;17.08;;;11.80;;
45893;SDS011;31603;51.148;16.932;2022-08-19T04:43:35;15.45;;;12.35;;
45893;SDS011;31603;51.148;16.932;2022-08-19T04:46:07;16.02;;;12.13;;
45893;SDS011;31603;51.148;16.932;2022-08-19T04:48:35;15.65;;;12.43;;
45893;SDS011;31603;51.148;16.932;2022-08-19T04:51:05;15.50;;;11.88;;
45893;SDS011;31603;51.148;16.932;2022-08-19T04:53:35;16.33;;;13.35;;
45893;SDS011;31603;51.148;16.932;2022-08-19T04:56:05;16.58;;;13.55;;
45893;SDS011;31603;51.148;16.932;2022-08-19T04:58:35;19.27;;;13.73;;
45893;SDS011;31603;51.148;16.932;2022-08-19T05:01:02;16.25;;;12.45;;
45893;SDS011;31603;51.148;16.932;2022-08-19T05:03:29;17.02;;;13.68;;
45893;SDS011;31603;51.148;16.932;2022-08-19T05:05:58;17.65;;;12.48;;
45893;SDS011;31603;51.148;16.932;2022-08-19T05:08:31;16.98;;;13.00;;
45893;SDS011;31603;51.148;16.932;2022-08-19T05:11:08;16.83;;;12.65;;
45893;SDS011;31603;51.148;16.932;2022-08-19T05:13:38;17.95;;;13.52;;
45893;SDS011;31603;51.148;16.932;2022-08-19T05:16:12;16.60;;;14.30;;
45893;SDS011;31603;51.148;16.932;2022-08-19T05:18:45;15.90;;;13.02;;
45893;SDS011;31603;51.148;16.932;2022-08-19T05:21:30;18.10;;;13.00;;
45893;SDS011;31603;51.148;16.932;2022-08-19T05:24:15;18.73;;;12.80;;
45893;SDS011;31603;51.148;16.932;2022-08-19T05:26:44;16.65;;;14.15;;
45893;SDS011;31603;51.148;16.932;2022-08-19T05:29:14;16.30;;;12.13;;
45893;SDS011;31603;51.148;16.932;2022-08-19T05:31:53;18.27;;;13.10;;
45893;SDS011;31603;51.148;16.932;2022-08-19T05:34:21;18.23;;;14.55;;
45893;SDS011;31603;51.148;16.932;2022-08-19T05:36:50;19.42;;;13.50;;
45893;SDS011;31603;51.148;16.932;2022-08-19T05:39:20;17.33;;;11.83;;
45893;SDS011;31603;51.148;16.932;2022-08-19T05:41:56;19.98;;;13.35;;
45893;SDS011;31603;51.148;16.932;2022-08-19T05:44:28;19.08;;;13.32;;
45893;SDS011;31603;51.148;16.932;2022-08-19T05:46:58;20.10;;;13.77;;
45893;SDS011;31603;51.148;16.932;2022-08-19T05:49:25;18.60;;;13.20;;
45893;SDS011;31603;51.148;16.932;2022-08-19T05:51:52;18.42;;;12.68;;
45893;SDS011;31603;51.148;16.932;2022-08-19T05:54:20;15.73;;;13.15;;
45893;SDS011;31603;51.148;16.932;2022-08-19T05:56:52;18.67;;;14.95;;
45893;SDS011;31603;51.148;16.932;2022-08-19T05:59:21;17.38;;;13.85;;
45893;SDS011;31603;51.148;16.932;2022-08-19T06:01:50;18.42;;;13.88;;
45893;SDS011;31603;51.148;16.932;2022-08-19T06:04:19;17.47;;;13.70;;
45893;SDS011;31603;51.148;16.932;2022-08-19T06:06:46;14.35;;;12.23;;
45893;SDS011;31603;51.148;16.932;2022-08-19T06:09:18;16.05;;;13.18;;
45893;SDS011;31603;51.148;16.932;2022-08-19T06:11:46;18.05;;;12.88;;
45893;SDS011;31603;51.148;16.932;2022-08-19T06:14:19;17.45;;;12.50;;
45893;SDS011;31603;51.148;16.932;2022-08-19T06:16:48;17.83;;;11.90;;
45893;SDS011;31603;51.148;16.932;2022-08-19T06:19:17;18.85;;;13.32;;
45893;SDS011;31603;51.148;16.932;2022-08-19T06:21:50;17.05;;;11.82;;
45893;SDS011;31603;51.148;16.932;2022-08-19T06:24:28;17.27;;;13.20;;
45893;SDS011;31603;51.148;16.932;2022-08-19T06:27:00;21.83;;;12.70;;
45893;SDS011;31603;51.148;16.932;2022-08-19T06:29:30;20.20;;;12.73;;
45893;SDS011;31603;51.148;16.932;2022-08-19T06:31:59;20.60;;;13.55;;
45893;SDS011;31603;51.148;16.932;2022-08-19T06:34:27;18.40;;;12.95;;
45893;SDS011;31603;51.148;16.932;2022-08-19T06:37:00;18.38;;;13.13;;
45893;SDS011;31603;51.148;16.932;2022-08-19T06:39:31;18.95;;;12.80;;
45893;SDS011;31603;51.148;16.932;2022-08-19T06:42:01;15.35;;;12.10;;
45893;SDS011;31603;51.148;16.932;2022-08-19T06:44:32;16.58;;;11.52;;
45893;SDS011;31603;51.148;16.932;2022-08-19T06:47:02;16.05;;;12.80;;
45893;SDS011;31603;51.148;16.932;2022-08-19T06:49:31;16.77;;;13.48;;
45893;SDS011;31603;51.148;16.932;2022-08-19T06:51:58;15.85;;;11.57;;
45893;SDS011;31603;51.148;16.932;2022-08-19T06:54:26;25.40;;;11.88;;
45893;SDS011;31603;51.148;16.932;2022-08-19T06:56:54;15.55;;;12.48;;
45893;SDS011;31603;51.148;16.932;2022-08-19T06:59:22;18.50;;;11.70;;
45893;SDS011;31603;51.148;16.932;2022-08-19T07:01:57;15.95;;;12.10;;
45893;SDS011;31603;51.148;16.932;2022-08-19T07:04:26;17.00;;;11.52;;
45893;SDS011;31603;51.148;16.932;2022-08-19T07:06:57;18.33;;;11.57;;
45893;SDS011;31603;51.148;16.932;2022-08-19T07:09:26;14.35;;;11.43;;
45893;SDS011;31603;51.148;16.932;2022-08-19T07:11:53;15.20;;;10.57;;
45893;SDS011;31603;51.148;16.932;2022-08-19T07:14:23;16.65;;;12.02;;
45893;SDS011;31603;51.148;16.932;2022-08-19T07:16:53;15.32;;;10.90;;
45893;SDS011;31603;51.148;16.932;2022-08-19T07:19:23;15.82;;;11.10;;
45893;SDS011;31603;51.148;16.932;2022-08-19T07:22:02;13.98;;;10.65;;
45893;SDS011;31603;51.148;16.932;2022-08-19T07:24:30;14.85;;;10.52;;
45893;SDS011;31603;51.148;16.932;2022-08-19T07:27:01;14.10;;;11.20;;
45893;SDS011;31603;51.148;16.932;2022-08-19T07:29:42;14.07;;;11.13;;
45893;SDS011;31603;51.148;16.932;2022-08-19T07:32:10;17.35;;;11.05;;
45893;SDS011;31603;51.148;16.932;2022-08-19T07:34:37;16.70;;;10.55;;
45893;SDS011;31603;51.148;16.932;2022-08-19T07:37:05;16.40;;;9.95;;
45893;SDS011;31603;51.148;16.932;2022-08-19T07:39:33;13.43;;;9.02;;
45893;SDS011;31603;51.148;16.932;2022-08-19T07:42:02;15.15;;;9.52;;
45893;SDS011;31603;51.148;16.932;2022-08-19T07:44:32;14.68;;;10.00;;
45893;SDS011;31603;51.148;16.932;2022-08-19T07:46:59;18.25;;;10.02;;
45893;SDS011;31603;51.148;16.932;2022-08-19T07:49:26;13.73;;;9.15;;
45893;SDS011;31603;51.148;16.932;2022-08-19T07:51:54;11.63;;;8.20;;
45893;SDS011;31603;51.148;16.932;2022-08-19T07:54:24;12.68;;;9.35;;
45893;SDS011;31603;51.148;16.932;2022-08-19T07:56:52;12.95;;;9.23;;
45893;SDS011;31603;51.148;16.932;2022-08-19T07:59:19;15.50;;;8.57;;
45893;SDS011;31603;51.148;16.932;2022-08-19T08:01:50;10.57;;;8.88;;
45893;SDS011;31603;51.148;16.932;2022-08-19T08:04:20;14.75;;;8.88;;
45893;SDS011;31603;51.148;16.932;2022-08-19T08:07:05;12.15;;;8.80;;
45893;SDS011;31603;51.148;16.932;2022-08-19T08:09:52;16.35;;;9.80;;
45893;SDS011;31603;51.148;16.932;2022-08-19T08:12:19;9.30;;;7.57;;
45893;SDS011;31603;51.148;16.932;2022-08-19T08:14:51;11.88;;;7.55;;
45893;SDS011;31603;51.148;16.932;2022-08-19T08:17:20;11.52;;;7.05;;
45893;SDS011;31603;51.148;16.932;2022-08-19T08:19:50;9.45;;;6.80;;
45893;SDS011;31603;51.148;16.932;2022-08-19T08:22:17;11.68;;;7.20;;
45893;SDS011;31603;51.148;16.932;2022-08-19T08:25:03;10.60;;;6.13;;
45893;SDS011;31603;51.148;16.932;2022-08-19T08:27:30;10.88;;;6.65;;
45893;SDS011;31603;51.148;16.932;2022-08-19T08:29:57;12.18;;;7.30;;
45893;SDS011;31603;51.148;16.932;2022-08-19T08:32:25;10.68;;;6.63;;
45893;SDS011;31603;51.148;16.932;2022-08-19T08:34:51;8.93;;;6.97;;
45893;SDS011;31603;51.148;16.932;2022-08-19T08:37:21;11.55;;;6.85;;
45893;SDS011;31603;51.148;16.932;2022-08-19T08:39:48;12.63;;;7.05;;
45893;SDS011;31603;51.148;16.932;2022-08-19T08:42:19;9.38;;;7.43;;
45893;SDS011;31603;51.148;16.932;2022-08-19T08:44:52;11.35;;;6.82;;
45893;SDS011;31603;51.148;16.932;2022-08-19T08:47:23;9.20;;;6.60;;
45893;SDS011;31603;51.148;16.932;2022-08-19T08:49:54;10.13;;;6.70;;
45893;SDS011;31603;51.148;16.932;2022-08-19T08:52:26;9.35;;;6.53;;
45893;SDS011;31603;51.148;16.932;2022-08-19T08:55:23;10.07;;;7.68;;
45893;SDS011;31603;51.148;16.932;2022-08-19T08:57:57;10.70;;;7.85;;
45893;SDS011;31603;51.148;16.932;2022-08-19T09:00:31;11.60;;;7.45;;
45893;SDS011;31603;51.148;16.932;2022-08-19T09:03:07;9.25;;;6.55;;
45893;SDS011;31603;51.148;16.932;2022-08-19T09:05:57;12.90;;;7.53;;
45893;SDS011;31603;51.148;16.932;2022-08-19T09:08:33;8.98;;;6.35;;
45893;SDS011;31603;51.148;16.932;2022-08-19T09:11:07;10.18;;;6.68;;
45893;SDS011;31603;51.148;16.932;2022-08-19T09:13:41;17.75;;;10.05;;
45893;SDS011;31603;51.148;16.932;2022-08-19T09:16:12;9.63;;;7.18;;
45893;SDS011;31603;51.148;16.932;2022-08-19T09:18:42;8.95;;;6.68;;
45893;SDS011;31603;51.148;16.932;2022-08-19T09:21:12;12.65;;;7.13;;
45893;SDS011;31603;51.148;16.932;2022-08-19T09:23:42;7.83;;;7.03;;
45893;SDS011;31603;51.148;16.932;2022-08-19T09:26:09;12.80;;;7.43;;
45893;SDS011;31603;51.148;16.932;2022-08-19T09:28:43;19.00;;;12.88;;
45893;SDS011;31603;51.148;16.932;2022-08-19T09:31:13;13.00;;;9.05;;
45893;SDS011;31603;51.148;16.932;2022-08-19T09:33:45;14.32;;;9.75;;
45893;SDS011;31603;51.148;16.932;2022-08-19T09:36:14;12.10;;;8.27;;
45893;SDS011;31603;51.148;16.932;2022-08-19T09:38:43;13.32;;;10.40;;
45893;SDS011;31603;51.148;16.932;2022-08-19T09:41:13;11.80;;;8.95;;
45893;SDS011;31603;51.148;16.932;2022-08-19T09:43:59;13.25;;;9.10;;
45893;SDS011;31603;51.148;16.932;2022-08-19T09:46:28;15.77;;;10.57;;
45893;SDS011;31603;51.148;16.932;2022-08-19T09:48:57;16.10;;;10.90;;
45893;SDS011;31603;51.148;16.932;2022-08-19T09:51:27;13.90;;;9.40;;
45893;SDS011;31603;51.148;16.932;2022-08-19T09:53:55;13.02;;;8.32;;
45893;SDS011;31603;51.148;16.932;2022-08-19T09:56:25;11.95;;;7.80;;
45893;SDS011;31603;51.148;16.932;2022-08-19T09:58:54;14.10;;;7.88;;
45893;SDS011;31603;51.148;16.932;2022-08-19T10:01:26;12.55;;;7.93;;
45893;SDS011;31603;51.148;16.932;2022-08-19T10:03:58;17.55;;;10.20;;
45893;SDS011;31603;51.148;16.932;2022-08-19T10:06:37;11.05;;;7.35;;
45893;SDS011;31603;51.148;16.932;2022-08-19T10:09:05;10.13;;;6.95;;
45893;SDS011;31603;51.148;16.932;2022-08-19T10:11:33;10.27;;;7.40;;
45893;SDS011;31603;51.148;16.932;2022-08-19T10:14:03;10.77;;;6.82;;
45893;SDS011;31603;51.148;16.932;2022-08-19T10:16:33;8.35;;;6.85;;
45893;SDS011;31603;51.148;16.932;2022-08-19T10:19:02;10.82;;;6.75;;
45893;SDS011;31603;51.148;16.932;2022-08-19T10:21:29;10.15;;;6.15;;
45893;SDS011;31603;51.148;16.932;2022-08-19T10:24:04;8.63;;;6.88;;
45893;SDS011;31603;51.148;16.932;2022-08-19T10:26:33;11.25;;;6.78;;
45893;SDS011;31603;51.148;16.932;2022-08-19T10:29:03;9.93;;;6.75;;
45893;SDS011;31603;51.148;16.932;2022-08-19T10:31:31;12.25;;;6.18;;
45893;SDS011;31603;51.148;16.932;2022-08-19T10:33:59;11.50;;;6.50;;
45893;SDS011;31603;51.148;16.932;2022-08-19T10:36:27;7.30;;;5.63;;
45893;SDS011;31603;51.148;16.932;2022-08-19T10:38:56;10.77;;;6.45;;
45893;SDS011;31603;51.148;16.932;2022-08-19T10:41:27;8.00;;;5.90;;
45893;SDS011;31603;51.148;16.932;2022-08-19T10:44:26;9.40;;;5.68;;
45893;SDS011;31603;51.148;16.932;2022-08-19T10:47:06;8.48;;;6.43;;
45893;SDS011;31603;51.148;16.932;2022-08-19T10:49:48;7.97;;;5.47;;
45893;SDS011;31603;51.148;16.932;2022-08-19T10:52:32;11.05;;;6.22;;
45893;SDS011;31603;51.148;16.932;2022-08-19T10:55:12;10.65;;;8.65;;
45893;SDS011;31603;51.148;16.932;2022-08-19T10:57:58;9.73;;;5.82;;
45893;SDS011;31603;51.148;16.932;2022-08-19T11:00:26;10.48;;;6.05;;
45893;SDS011;31603;51.148;16.932;2022-08-19T11:02:52;11.65;;;6.35;;
45893;SDS011;31603;51.148;16.932;2022-08-19T11:05:19;10.85;;;5.97;;
45893;SDS011;31603;51.148;16.932;2022-08-19T11:07:47;9.52;;;5.88;;
45893;SDS011;31603;51.148;16.932;2022-08-19T11:10:15;8.80;;;5.63;;
45893;SDS011;31603;51.148;16.932;2022-08-19T11:12:44;12.00;;;5.72;;
45893;SDS011;31603;51.148;16.932;2022-08-19T11:15:11;12.50;;;6.10;;
45893;SDS011;31603;51.148;16.932;2022-08-19T11:17:39;11.52;;;6.18;;
45893;SDS011;31603;51.148;16.932;2022-08-19T11:20:08;7.70;;;5.60;;
45893;SDS011;31603;51.148;16.932;2022-08-19T11:22:37;8.80;;;6.38;;
45893;SDS011;31603;51.148;16.932;2022-08-19T11:25:04;9.57;;;6.00;;
45893;SDS011;31603;51.148;16.932;2022-08-19T11:27:31;9.27;;;6.18;;
45893;SDS011;31603;51.148;16.932;2022-08-19T11:29:58;11.93;;;5.60;;
45893;SDS011;31603;51.148;16.932;2022-08-19T11:32:25;8.70;;;6.13;;
45893;SDS011;31603;51.148;16.932;2022-08-19T11:34:53;8.57;;;6.07;;
45893;SDS011;31603;51.148;16.932;2022-08-19T11:37:21;9.07;;;5.78;;
45893;SDS011;31603;51.148;16.932;2022-08-19T11:39:47;8.20;;;5.22;;
45893;SDS011;31603;51.148;16.932;2022-08-19T11:42:14;8.75;;;5.85;;
45893;SDS011;31603;51.148;16.932;2022-08-19T11:44:58;13.98;;;6.32;;
45893;SDS011;31603;51.148;16.932;2022-08-19T11:47:25;8.27;;;5.93;;
45893;SDS011;31603;51.148;16.932;2022-08-19T11:49:53;9.73;;;5.40;;
45893;SDS011;31603;51.148;16.932;2022-08-19T11:52:20;9.07;;;5.40;;
45893;SDS011;31603;51.148;16.932;2022-08-19T11:54:46;6.25;;;5.35;;
45893;SDS011;31603;51.148;16.932;2022-08-19T11:57:27;6.35;;;4.97;;
45893;SDS011;31603;51.148;16.932;2022-08-19T11:59:54;7.18;;;4.55;;
45893;SDS011;31603;51.148;16.932;2022-08-19T12:02:20;6.25;;;3.85;;
45893;SDS011;31603;51.148;16.932;2022-08-19T12:04:48;5.93;;;3.95;;
45893;SDS011;31603;51.148;16.932;2022-08-19T12:07:16;5.75;;;3.53;;
45893;SDS011;31603;51.148;16.932;2022-08-19T12:09:43;6.28;;;3.67;;
45893;SDS011;31603;51.148;16.932;2022-08-19T12:12:09;5.40;;;3.63;;
45893;SDS011;31603;51.148;16.932;2022-08-19T12:14:36;5.85;;;3.40;;
45893;SDS011;31603;51.148;16.932;2022-08-19T12:17:02;4.55;;;3.40;;
45893;SDS011;31603;51.148;16.932;2022-08-19T12:19:32;4.72;;;3.22;;
45893;SDS011;31603;51.148;16.932;2022-08-19T12:21:59;5.25;;;3.70;;
45893;SDS011;31603;51.148;16.932;2022-08-19T12:24:30;6.28;;;4.22;;
45893;SDS011;31603;51.148;16.932;2022-08-19T12:26:57;4.80;;;3.35;;
45893;SDS011;31603;51.148;16.932;2022-08-19T12:29:27;4.68;;;3.22;;
45893;SDS011;31603;51.148;16.932;2022-08-19T12:31:58;4.70;;;3.65;;
45893;SDS011;31603;51.148;16.932;2022-08-19T12:34:27;5.50;;;3.50;;
45893;SDS011;31603;51.148;16.932;2022-08-19T12:36:55;5.03;;;3.13;;
45893;SDS011;31603;51.148;16.932;2022-08-19T12:39:23;5.57;;;3.40;;
45893;SDS011;31603;51.148;16.932;2022-08-19T12:41:53;7.45;;;3.65;;
45893;SDS011;31603;51.148;16.932;2022-08-19T12:44:21;6.05;;;3.60;;
45893;SDS011;31603;51.148;16.932;2022-08-19T12:46:47;4.38;;;3.65;;
45893;SDS011;31603;51.148;16.932;2022-08-19T12:49:15;4.78;;;4.13;;
45893;SDS011;31603;51.148;16.932;2022-08-19T12:51:41;4.47;;;3.08;;
45893;SDS011;31603;51.148;16.932;2022-08-19T12:54:08;5.22;;;3.58;;
45893;SDS011;31603;51.148;16.932;2022-08-19T12:56:35;5.30;;;3.30;;
45893;SDS011;31603;51.148;16.932;2022-08-19T12:59:03;4.82;;;3.25;;
45893;SDS011;31603;51.148;16.932;2022-08-19T13:01:32;4.43;;;2.92;;
45893;SDS011;31603;51.148;16.932;2022-08-19T13:03:59;6.65;;;2.80;;
45893;SDS011;31603;51.148;16.932;2022-08-19T13:06:25;4.05;;;3.10;;
45893;SDS011;31603;51.148;16.932;2022-08-19T13:08:52;6.28;;;3.10;;
45893;SDS011;31603;51.148;16.932;2022-08-19T13:11:21;6.53;;;3.00;;
45893;SDS011;31603;51.148;16.932;2022-08-19T13:13:57;4.57;;;2.78;;
45893;SDS011;31603;51.148;16.932;2022-08-19T13:16:28;3.20;;;2.25;;
45893;SDS011;31603;51.148;16.932;2022-08-19T13:18:55;6.00;;;2.80;;
45893;SDS011;31603;51.148;16.932;2022-08-19T13:21:34;5.65;;;2.83;;
45893;SDS011;31603;51.148;16.932;2022-08-19T13:24:01;5.88;;;2.85;;
45893;SDS011;31603;51.148;16.932;2022-08-19T13:26:28;4.32;;;3.00;;
45893;SDS011;31603;51.148;16.932;2022-08-19T13:28:55;3.85;;;2.90;;
45893;SDS011;31603;51.148;16.932;2022-08-19T13:31:40;5.00;;;3.28;;
45893;SDS011;31603;51.148;16.932;2022-08-19T13:34:27;5.38;;;3.38;;
45893;SDS011;31603;51.148;16.932;2022-08-19T13:37:02;4.18;;;2.70;;
45893;SDS011;31603;51.148;16.932;2022-08-19T13:39:36;5.28;;;3.45;;
45893;SDS011;31603;51.148;16.932;2022-08-19T13:42:02;5.43;;;3.05;;
45893;SDS011;31603;51.148;16.932;2022-08-19T13:44:29;6.75;;;3.20;;
45893;SDS011;31603;51.148;16.932;2022-08-19T13:47:07;3.97;;;3.20;;
45893;SDS011;31603;51.148;16.932;2022-08-19T13:49:37;6.03;;;3.90;;
45893;SDS011;31603;51.148;16.932;2022-08-19T13:52:18;6.15;;;3.67;;
45893;SDS011;31603;51.148;16.932;2022-08-19T13:54:45;9.68;;;3.90;;
45893;SDS011;31603;51.148;16.932;2022-08-19T13:57:14;5.40;;;3.47;;
45893;SDS011;31603;51.148;16.932;2022-08-19T14:02:10;4.80;;;3.40;;
45893;SDS011;31603;51.148;16.932;2022-08-19T14:04:39;5.55;;;3.75;;
45893;SDS011;31603;51.148;16.932;2022-08-19T14:07:06;5.88;;;3.65;;
45893;SDS011;31603;51.148;16.932;2022-08-19T14:09:32;7.13;;;3.83;;
45893;SDS011;31603;51.148;16.932;2022-08-19T14:12:00;5.00;;;3.83;;
45893;SDS011;31603;51.148;16.932;2022-08-19T14:14:26;5.75;;;4.20;;
45893;SDS011;31603;51.148;16.932;2022-08-19T14:16:54;7.93;;;3.85;;
45893;SDS011;31603;51.148;16.932;2022-08-19T14:19:22;8.85;;;4.00;;
45893;SDS011;31603;51.148;16.932;2022-08-19T14:21:50;10.27;;;4.72;;
45893;SDS011;31603;51.148;16.932;2022-08-19T14:24:17;5.80;;;4.03;;
45893;SDS011;31603;51.148;16.932;2022-08-19T14:26:43;4.22;;;3.72;;
45893;SDS011;31603;51.148;16.932;2022-08-19T14:29:10;6.85;;;4.13;;
45893;SDS011;31603;51.148;16.932;2022-08-19T14:31:37;5.93;;;3.47;;
45893;SDS011;31603;51.148;16.932;2022-08-19T14:34:06;6.55;;;4.03;;
45893;SDS011;31603;51.148;16.932;2022-08-19T14:36:37;7.38;;;4.25;;
45893;SDS011;31603;51.148;16.932;2022-08-19T14:39:05;7.68;;;4.97;;
45893;SDS011;31603;51.148;16.932;2022-08-19T14:41:39;9.85;;;6.18;;
45893;SDS011;31603;51.148;16.932;2022-08-19T14:44:10;11.15;;;6.43;;
45893;SDS011;31603;51.148;16.932;2022-08-19T14:46:39;8.18;;;6.60;;
45893;SDS011;31603;51.148;16.932;2022-08-19T14:49:06;11.63;;;7.30;;
45893;SDS011;31603;51.148;16.932;2022-08-19T14:51:33;9.98;;;7.57;;